Pagrindinis puslapis
METAR-TAF:

METAR-TAF

Oro uostai :

Krokuva, Lenkija

platuma: 50-05N, ilguma: 019-48E, Aukštis: 237 m

Dabartinis oras

Ataskaita buvo paskelbta 40 minutes, ne 16:30 UTC
Vėjas 9 kt iš Šiaurės Rytų
Temperatūra 9°C
Drėgmė 61%
Slėgis 1013 hPa
Matomumas 10 km arba daugiau
Mažai debesys ne aukštis 4000 ft

METAR: EPKK 231630Z 05009KT 9999 FEW040 09/02 Q1013

Laikas: 19:10 (17:10 UTC)

Prognozė

Ataskaita buvo paskelbta 2 valandos ir 40 minutes, ne 14:30 UTC
Prognozė galioja nuo 23 metu 15 UTC su 24 metu 15 UTC
Vėjas 10 kt iš Rytų/Šiaurės Rytų
Matomumas 10 km arba daugiau
Išsisklaidę debesys ne aukštis 4000 ft
Tapsmas
nuo 24 metu 05 UTC su 24 metu 08 UTC
Vėjas 7 kt iš Vakarų/Šiaurės Vakarų
Matomumas: 4000 m
Su prošvaistėmis ne aukštis 1400 ft
lietus, rūkana,

TAF: EPKK 231430Z 2315/2415 06010KT 9999 SCT040 BECMG 2405/2408 30007KT 4000 RA BR BKN014

Orai ataskaitas ir orų prognozės (METAR, TAF).

turimą stotys yra geltonos ir raudonos taškus žemėlapyje.

Perkelti pele per norėdami pamatyti stoties vardą.

Tada spustelėkite, norėdami matyti oro stebėjimo ir prognozės.

Norėdami pakeisti žemėlapį: spustelėkite ant žalios mygtukų su juodo kryžiaus žemyn,; žalią mygtuką su brūkšneliu, jei norite nutolinti; arba žalių rodyklių gretimoms žemėlapius.


METAR-TAF: